Time;durP1;ratioP1;P1;durP2;ratioP2;P2;SDS_P1;SDS_P2;PMS_P1;PMS_P2;Temp;Humidity;BMP_temperature;BMP_pressure;BME280_temperature;BME280_humidity;BME280_pressure;Samples;Min_cycle;Max_cycle;Signal;HPM_P1;HPM_P2
2022/06/27 00:01:06;;;;;;;;;;;24.20;94.00;;;;;;5014302;28;19905;-70
2022/06/27 00:03:31;;;;;;;;;;;24.10;94.20;;;;;;5014454;28;19902;-70
2022/06/27 00:05:57;;;;;;;;;;;24.10;94.20;;;;;;5013021;28;20245;-70
2022/06/27 00:08:23;;;;;;;;;;;24.00;94.50;;;;;;5013943;28;19909;-70
2022/06/27 00:10:48;;;;;;;;;;;23.90;94.50;;;;;;5013932;28;19919;-71
2022/06/27 00:13:14;;;;;;;;;;;23.70;94.60;;;;;;5013888;28;19905;-69
2022/06/27 00:15:39;;;;;;;;;;;23.70;94.60;;;;;;5014241;28;19913;-70
2022/06/27 00:18:05;;;;;;;;;;;23.70;94.60;;;;;;5013706;28;20348;-70
2022/06/27 00:20:31;;;;;;;;;;;23.60;94.60;;;;;;5013601;28;20362;-70
2022/06/27 00:22:56;;;;;;;;;;;23.40;94.80;;;;;;5013752;28;20335;-69
2022/06/27 00:25:22;;;;;;;;;;;23.50;94.70;;;;;;5013648;28;19961;-69
2022/06/27 00:27:47;;;;;;;;;;;23.60;94.60;;;;;;5014052;28;19917;-69
2022/06/27 00:30:13;;;;;;;;;;;23.60;94.70;;;;;;5013895;28;19909;-70
2022/06/27 00:32:39;;;;;;;;;;;23.60;94.70;;;;;;5013474;28;19953;-70
2022/06/27 00:35:05;;;;;;;;;;;23.60;94.70;;;;;;5013301;28;20405;-70
2022/06/27 00:37:31;;;;;;;;;;;23.60;94.70;;;;;;5012276;28;20004;-69
2022/06/27 00:39:57;;;;;;;;;;;23.60;94.70;;;;;;5012611;28;20306;-70
2022/06/27 00:42:22;;;;;;;;;;;23.60;94.90;;;;;;5013229;28;20407;-70
2022/06/27 00:44:48;;;;;;;;;;;23.60;94.90;;;;;;5013279;28;19924;-70
2022/06/27 00:47:14;;;;;;;;;;;23.60;95.00;;;;;;5013296;28;19917;-70
2022/06/27 00:49:40;;;;;;;;;;;23.60;95.00;;;;;;5011995;28;19909;-70
2022/06/27 00:52:07;;;;;;;;;;;23.60;94.90;;;;;;5012923;28;19913;-70
2022/06/27 00:54:34;;;;;;;;;;;23.70;94.90;;;;;;5013305;28;19905;-69
2022/06/27 00:57:00;;;;;;;;;;;23.70;95.10;;;;;;5012948;28;19999;-70
2022/06/27 00:59:26;;;;;;;;;;;23.60;95.10;;;;;;5012993;28;20000;-70
2022/06/27 01:01:51;;;;;;;;;;;23.60;95.40;;;;;;5011936;28;19920;-70
2022/06/27 01:04:17;;;;;;;;;;;23.60;95.40;;;;;;5012813;28;19964;-70
2022/06/27 01:06:43;;;;;;;;;;;23.60;95.40;;;;;;5012054;28;20246;-70
2022/06/27 01:09:08;;;;;;;;;;;23.60;95.30;;;;;;5012778;28;20335;-70
2022/06/27 01:11:34;;;;;;;;;;;23.60;95.30;;;;;;5011727;28;19924;-70
2022/06/27 01:14:00;;;;;;;;;;;23.60;95.40;;;;;;5011516;28;20181;-70
2022/06/27 01:16:25;;;;;;;;;;;23.60;95.40;;;;;;5012857;28;19924;-70
2022/06/27 01:18:51;;;;;;;;;;;23.60;95.50;;;;;;5013378;28;19932;-70
2022/06/27 01:21:21;;;;;;;;;;;23.50;95.50;;;;;;5012665;28;20347;-70
2022/06/27 01:23:47;;;;;;;;;;;23.50;95.50;;;;;;5012589;28;20359;-70
2022/06/27 01:26:13;;;;;;;;;;;23.50;95.50;;;;;;5012478;28;19920;-69
2022/06/27 01:28:38;;;;;;;;;;;23.50;95.60;;;;;;5012197;28;20004;-69
2022/06/27 01:31:04;;;;;;;;;;;23.50;95.60;;;;;;5012112;28;19939;-70
2022/06/27 01:33:30;;;;;;;;;;;23.40;95.70;;;;;;5013156;28;19988;-69
2022/06/27 01:36:41;;;;;;;;;;;23.40;95.70;;;;;;5021677;28;20267;-70
2022/06/27 01:38:41;;;;;;;;;;;23.40;95.80;;;;;;5032075;28;19917;-70
2022/06/27 01:41:07;;;;;;;;;;;23.30;96.30;;;;;;5031966;28;19909;-69
2022/06/27 01:43:33;;;;;;;;;;;23.10;96.70;;;;;;5031800;28;20224;-69
2022/06/27 01:45:59;;;;;;;;;;;22.90;97.10;;;;;;5032222;28;20370;-69
2022/06/27 01:48:25;;;;;;;;;;;22.80;97.30;;;;;;5032046;28;19909;-69
2022/06/27 01:50:54;;;;;;;;;;;22.90;97.10;;;;;;5031832;28;19923;-69
2022/06/27 01:53:20;;;;;;;;;;;22.90;97.20;;;;;;5031951;28;19908;-69
2022/06/27 01:55:45;;;;;;;;;;;22.80;97.40;;;;;;5031647;28;19913;-70
2022/06/27 01:58:11;;;;;;;;;;;22.80;97.40;;;;;;5031874;28;19996;-68
2022/06/27 02:00:37;;;;;;;;;;;22.90;97.30;;;;;;5031433;28;19905;-70
2022/06/27 02:03:03;;;;;;;;;;;22.90;97.30;;;;;;5031609;28;19909;-69
2022/06/27 02:05:29;;;;;;;;;;;22.90;97.40;;;;;;5031520;28;19986;-69
2022/06/27 02:07:55;;;;;;;;;;;22.80;97.50;;;;;;5031489;28;19913;-69
2022/06/27 02:10:21;;;;;;;;;;;22.80;97.50;;;;;;5030461;28;20008;-70
2022/06/27 02:12:46;;;;;;;;;;;22.70;97.70;;;;;;5031881;28;20286;-70
2022/06/27 02:15:12;;;;;;;;;;;22.40;98.20;;;;;;5031428;28;19909;-70
2022/06/27 02:17:37;;;;;;;;;;;22.20;98.60;;;;;;5030388;28;19909;-70
2022/06/27 02:20:04;;;;;;;;;;;22.10;98.80;;;;;;5031429;28;19909;-70
2022/06/27 02:22:30;;;;;;;;;;;22.10;98.90;;;;;;5030284;28;20300;-71
2022/06/27 02:24:55;;;;;;;;;;;22.00;99.10;;;;;;5031842;28;19909;-70
2022/06/27 02:27:21;;;;;;;;;;;22.00;99.20;;;;;;5031440;28;20385;-70
2022/06/27 02:29:47;;;;;;;;;;;21.80;99.40;;;;;;5030179;28;19932;-70
2022/06/27 02:32:12;;;;;;;;;;;21.80;99.50;;;;;;5030195;28;19913;-70
2022/06/27 02:34:38;;;;;;;;;;;21.70;99.60;;;;;;5030037;28;19990;-70
2022/06/27 02:37:04;;;;;;;;;;;21.70;99.70;;;;;;5030174;28;20353;-71
2022/06/27 02:39:31;;;;;;;;;;;21.80;99.60;;;;;;5031537;28;19901;-70
2022/06/27 02:41:58;;;;;;;;;;;21.90;99.50;;;;;;5033021;28;19921;-69
2022/06/27 02:44:26;;;;;;;;;;;21.90;99.40;;;;;;5035193;28;19909;-69
2022/06/27 02:46:51;;;;;;;;;;;21.80;99.60;;;;;;5035081;28;20357;-70
2022/06/27 02:49:17;;;;;;;;;;;21.80;99.50;;;;;;5035109;28;19905;-69
2022/06/27 02:51:47;;;;;;;;;;;21.80;99.60;;;;;;5035272;28;20300;-69
2022/06/27 02:54:18;;;;;;;;;;;21.90;99.70;;;;;;5034903;28;20258;-69
2022/06/27 02:56:52;;;;;;;;;;;21.50;99.90;;;;;;5034877;28;19968;-70
2022/06/27 02:59:21;;;;;;;;;;;21.50;99.90;;;;;;5035035;28;20319;-69
2022/06/27 03:01:48;;;;;;;;;;;21.50;99.90;;;;;;5033888;28;19992;-70
2022/06/27 03:04:13;;;;;;;;;;;21.70;99.90;;;;;;5033847;28;19995;-71
2022/06/27 03:06:39;;;;;;;;;;;21.80;99.90;;;;;;5035246;28;20407;-69
2022/06/27 03:09:05;;;;;;;;;;;21.80;99.90;;;;;;5034633;28;19920;-70
2022/06/27 03:11:31;;;;;;;;;;;21.80;99.90;;;;;;5034667;28;20265;-70
2022/06/27 03:13:57;;;;;;;;;;;21.70;99.90;;;;;;5034658;28;20004;-70
2022/06/27 03:16:23;;;;;;;;;;;21.70;99.90;;;;;;5034642;28;19992;-70
2022/06/27 03:18:49;;;;;;;;;;;21.70;99.90;;;;;;5035418;28;19920;-70
2022/06/27 03:21:17;;;;;;;;;;;21.80;99.90;;;;;;5034915;28;19975;-70
2022/06/27 03:23:44;;;;;;;;;;;21.80;99.90;;;;;;5034490;28;19948;-70
2022/06/27 03:26:10;;;;;;;;;;;21.70;99.90;;;;;;5034648;28;19919;-70
2022/06/27 03:28:36;;;;;;;;;;;21.80;99.90;;;;;;5034692;28;19996;-70
2022/06/27 03:31:01;;;;;;;;;;;21.70;99.90;;;;;;5034668;28;19944;-70
2022/06/27 03:33:27;;;;;;;;;;;21.80;99.90;;;;;;5034900;28;19919;-70
2022/06/27 03:35:52;;;;;;;;;;;21.80;99.90;;;;;;5034182;28;19983;-69
2022/06/27 03:38:18;;;;;;;;;;;21.80;99.90;;;;;;5034503;28;19917;-70
2022/06/27 03:40:44;;;;;;;;;;;21.80;99.90;;;;;;5034225;28;19931;-70
2022/06/27 03:43:10;;;;;;;;;;;21.80;99.90;;;;;;5034195;28;19905;-70
2022/06/27 03:45:35;;;;;;;;;;;21.70;99.90;;;;;;5033596;28;20286;-70
2022/06/27 03:48:02;;;;;;;;;;;21.50;99.90;;;;;;5032995;28;19916;-71
2022/06/27 03:50:27;;;;;;;;;;;21.50;99.90;;;;;;5034180;28;19909;-70
2022/06/27 03:52:54;;;;;;;;;;;21.50;99.90;;;;;;5033412;28;19963;-70
2022/06/27 03:55:20;;;;;;;;;;;21.60;99.90;;;;;;5034039;28;19963;-71
2022/06/27 03:57:51;;;;;;;;;;;21.60;99.90;;;;;;5034435;28;20020;-70
2022/06/27 04:00:18;;;;;;;;;;;21.70;99.90;;;;;;5032808;28;19916;-70
2022/06/27 04:02:44;;;;;;;;;;;21.80;99.90;;;;;;5033764;28;19908;-70
2022/06/27 04:05:10;;;;;;;;;;;21.80;99.90;;;;;;5032712;28;19967;-70
2022/06/27 04:07:36;;;;;;;;;;;21.80;99.90;;;;;;5033689;28;19940;-70
2022/06/27 04:10:02;;;;;;;;;;;21.80;99.90;;;;;;5034517;28;19975;-70
2022/06/27 04:12:27;;;;;;;;;;;21.80;99.90;;;;;;5033868;28;20275;-70
2022/06/27 04:14:53;;;;;;;;;;;21.80;99.90;;;;;;5033900;28;19920;-70
2022/06/27 04:17:19;;;;;;;;;;;21.90;99.90;;;;;;5033932;28;19979;-70
2022/06/27 04:19:44;;;;;;;;;;;21.80;99.90;;;;;;5033441;28;19910;-70
2022/06/27 04:22:10;;;;;;;;;;;21.80;99.90;;;;;;5033530;28;19908;-70
2022/06/27 04:24:37;;;;;;;;;;;21.80;99.90;;;;;;5034067;28;19905;-69
2022/06/27 04:27:04;;;;;;;;;;;21.80;99.90;;;;;;5033555;28;19909;-69
2022/06/27 04:29:30;;;;;;;;;;;21.90;99.90;;;;;;5033328;28;19996;-69
2022/06/27 04:31:56;;;;;;;;;;;21.90;99.80;;;;;;5033132;28;19917;-70
2022/06/27 04:34:22;;;;;;;;;;;21.80;99.80;;;;;;5033222;28;19929;-70
2022/06/27 04:36:47;;;;;;;;;;;21.90;99.70;;;;;;5032417;28;20232;-69
2022/06/27 04:39:15;;;;;;;;;;;21.90;99.50;;;;;;5032999;28;19908;-70
2022/06/27 04:41:44;;;;;;;;;;;22.00;99.60;;;;;;5031807;28;20520;-70
2022/06/27 04:44:11;;;;;;;;;;;21.90;99.60;;;;;;5033181;28;19955;-71
2022/06/27 04:46:40;;;;;;;;;;;21.90;99.50;;;;;;5032979;28;20219;-71
2022/06/27 04:49:06;;;;;;;;;;;22.00;99.60;;;;;;5032904;28;19909;-71
2022/06/27 04:51:32;;;;;;;;;;;22.00;99.50;;;;;;5033043;28;19932;-71
2022/06/27 04:53:58;;;;;;;;;;;22.00;99.50;;;;;;5033036;28;19931;-70
2022/06/27 04:56:24;;;;;;;;;;;22.00;99.30;;;;;;5033182;28;20294;-70
2022/06/27 04:58:49;;;;;;;;;;;22.00;99.30;;;;;;5032803;28;19913;-71
2022/06/27 05:01:15;;;;;;;;;;;22.00;99.30;;;;;;5032710;28;19990;-70
2022/06/27 05:03:40;;;;;;;;;;;22.00;99.20;;;;;;5032303;28;20361;-71
2022/06/27 05:06:06;;;;;;;;;;;22.00;99.10;;;;;;5032601;28;20350;-70
2022/06/27 05:08:32;;;;;;;;;;;21.90;99.10;;;;;;5032291;28;19909;-70
2022/06/27 05:10:58;;;;;;;;;;;21.90;99.20;;;;;;5032412;28;19909;-70
2022/06/27 05:13:23;;;;;;;;;;;22.00;99.20;;;;;;5032192;28;19909;-70
2022/06/27 05:15:49;;;;;;;;;;;22.00;99.10;;;;;;5032686;28;20258;-70
2022/06/27 05:18:15;;;;;;;;;;;22.00;99.10;;;;;;5032280;28;20330;-70
2022/06/27 05:20:42;;;;;;;;;;;22.10;99.00;;;;;;5031125;28;20081;-70
2022/06/27 05:23:08;;;;;;;;;;;22.10;99.00;;;;;;5032051;28;19920;-70
2022/06/27 05:25:33;;;;;;;;;;;22.10;98.80;;;;;;5032346;28;19909;-70
2022/06/27 05:28:02;;;;;;;;;;;22.20;98.90;;;;;;5032402;28;19905;-70
2022/06/27 05:30:28;;;;;;;;;;;22.20;98.80;;;;;;5032051;28;19920;-69
2022/06/27 05:32:54;;;;;;;;;;;22.20;98.70;;;;;;5031977;28;19924;-69
2022/06/27 05:35:20;;;;;;;;;;;22.20;98.60;;;;;;5031574;28;20270;-69
2022/06/27 05:37:46;;;;;;;;;;;22.30;98.60;;;;;;5031699;28;19920;-69
2022/06/27 05:40:12;;;;;;;;;;;22.30;98.90;;;;;;5031857;28;19916;-70
2022/06/27 05:42:37;;;;;;;;;;;22.30;98.70;;;;;;5032079;28;20269;-70
2022/06/27 05:45:04;;;;;;;;;;;22.30;98.60;;;;;;5031595;28;20426;-69
2022/06/27 05:47:30;;;;;;;;;;;22.30;98.50;;;;;;5031424;28;19909;-70
2022/06/27 05:49:56;;;;;;;;;;;22.40;98.50;;;;;;5031459;28;19913;-71
2022/06/27 05:52:22;;;;;;;;;;;22.40;98.30;;;;;;5031265;28;19931;-69
2022/06/27 05:54:48;;;;;;;;;;;22.40;98.40;;;;;;5031839;28;19915;-69
2022/06/27 05:57:14;;;;;;;;;;;22.50;98.30;;;;;;5031303;28;19909;-67
2022/06/27 05:59:40;;;;;;;;;;;22.60;98.40;;;;;;5031388;28;19909;-69
2022/06/27 06:02:06;;;;;;;;;;;22.50;98.00;;;;;;5030898;28;19923;-70
2022/06/27 06:04:32;;;;;;;;;;;22.50;98.10;;;;;;5031246;28;19996;-70
2022/06/27 06:06:58;;;;;;;;;;;22.40;98.10;;;;;;5031496;28;19944;-69
2022/06/27 06:09:24;;;;;;;;;;;22.40;98.10;;;;;;5031425;28;19913;-69
2022/06/27 06:11:51;;;;;;;;;;;22.40;98.10;;;;;;5031113;28;20009;-69
2022/06/27 06:14:19;;;;;;;;;;;22.40;98.20;;;;;;5031097;28;20402;-69
2022/06/27 06:16:45;;;;;;;;;;;22.40;98.10;;;;;;5029666;28;19920;-69
2022/06/27 06:19:11;;;;;;;;;;;22.40;98.10;;;;;;5030152;28;19913;-69
2022/06/27 06:21:38;;;;;;;;;;;22.50;98.10;;;;;;5031468;28;19916;-70
2022/06/27 06:24:04;;;;;;;;;;;22.50;97.90;;;;;;5031244;28;19909;-69
2022/06/27 06:26:29;;;;;;;;;;;22.40;97.80;;;;;;5031350;28;20346;-69
2022/06/27 06:28:55;;;;;;;;;;;22.40;98.00;;;;;;5031038;28;19909;-71
2022/06/27 06:31:22;;;;;;;;;;;22.50;98.00;;;;;;5030918;28;20007;-70
2022/06/27 06:33:51;;;;;;;;;;;22.50;97.80;;;;;;5031314;28;19940;-69
2022/06/27 06:36:24;;;;;;;;;;;22.50;97.90;;;;;;5031628;28;19945;-69
2022/06/27 06:38:51;;;;;;;;;;;22.50;97.90;;;;;;5031612;28;19996;-70
2022/06/27 06:41:17;;;;;;;;;;;22.40;97.80;;;;;;5030700;28;19920;-70
2022/06/27 06:43:45;;;;;;;;;;;22.50;97.90;;;;;;5030792;28;19916;-74
2022/06/27 06:46:10;;;;;;;;;;;22.60;97.90;;;;;;5031223;28;19929;-70
2022/06/27 06:48:37;;;;;;;;;;;22.70;97.80;;;;;;5031144;28;20349;-72
2022/06/27 06:51:05;;;;;;;;;;;22.70;97.70;;;;;;5030845;28;19913;-70
2022/06/27 06:53:31;;;;;;;;;;;22.80;97.60;;;;;;5030972;28;19924;-71
2022/06/27 06:55:57;;;;;;;;;;;22.90;97.50;;;;;;5030888;28;19909;-71
2022/06/27 06:58:25;;;;;;;;;;;22.90;97.60;;;;;;5030757;28;19996;-70
2022/06/27 07:00:51;;;;;;;;;;;22.90;97.50;;;;;;5031294;28;19909;-71
2022/06/27 07:03:18;;;;;;;;;;;23.00;97.40;;;;;;5029737;28;19955;-69
2022/06/27 07:05:45;;;;;;;;;;;23.00;97.30;;;;;;5030752;28;19916;-71
2022/06/27 07:08:12;;;;;;;;;;;23.10;97.20;;;;;;5030856;28;19917;-70
2022/06/27 07:10:38;;;;;;;;;;;23.10;97.10;;;;;;5030678;28;19917;-70
2022/06/27 07:13:04;;;;;;;;;;;23.20;97.00;;;;;;5030598;28;19959;-71
2022/06/27 07:15:30;;;;;;;;;;;23.20;96.90;;;;;;5029805;28;19905;-71
2022/06/27 07:17:56;;;;;;;;;;;23.20;96.90;;;;;;5030374;28;20346;-70
2022/06/27 07:20:22;;;;;;;;;;;23.30;96.80;;;;;;5029303;28;20003;-70
2022/06/27 07:22:49;;;;;;;;;;;23.40;96.60;;;;;;5030704;28;20403;-71
2022/06/27 07:25:15;;;;;;;;;;;23.30;96.30;;;;;;5029582;28;19905;-71
2022/06/27 07:27:44;;;;;;;;;;;23.20;96.40;;;;;;5032317;28;19993;-71
2022/06/27 07:30:11;;;;;;;;;;;23.10;96.50;;;;;;5034136;28;20357;-70
2022/06/27 07:32:39;;;;;;;;;;;23.20;96.60;;;;;;5034050;28;19921;-69
2022/06/27 07:35:05;;;;;;;;;;;23.40;96.40;;;;;;5033743;28;20362;-70
2022/06/27 07:37:33;;;;;;;;;;;23.40;96.30;;;;;;5033854;28;19925;-70
2022/06/27 07:39:59;;;;;;;;;;;23.40;96.10;;;;;;5034525;28;19905;-68
2022/06/27 07:42:25;;;;;;;;;;;23.40;96.10;;;;;;5034102;28;19928;-70
2022/06/27 07:44:51;;;;;;;;;;;23.40;95.90;;;;;;5032986;28;19924;-68
2022/06/27 07:47:17;;;;;;;;;;;23.40;96.00;;;;;;5033808;28;20346;-69
2022/06/27 07:49:42;;;;;;;;;;;23.60;96.10;;;;;;5033772;28;20105;-70
2022/06/27 07:52:08;;;;;;;;;;;23.90;96.00;;;;;;5033675;28;19909;-69
2022/06/27 07:54:34;;;;;;;;;;;24.00;95.70;;;;;;5034083;28;19901;-70
2022/06/27 07:57:02;;;;;;;;;;;24.30;95.50;;;;;;5033679;28;19909;-70
2022/06/27 07:59:28;;;;;;;;;;;24.40;95.00;;;;;;5033786;28;19909;-70
2022/06/27 08:01:53;;;;;;;;;;;24.30;94.90;;;;;;5032583;28;20294;-70
2022/06/27 08:04:19;;;;;;;;;;;24.20;94.90;;;;;;5033526;28;19944;-70
2022/06/27 08:06:50;;;;;;;;;;;24.10;95.00;;;;;;5033934;28;19907;-71
2022/06/27 08:09:19;;;;;;;;;;;24.20;95.00;;;;;;5033693;28;20370;-72
2022/06/27 08:11:45;;;;;;;;;;;24.40;95.00;;;;;;5032289;28;20192;-70
2022/06/27 08:14:12;;;;;;;;;;;24.60;95.00;;;;;;5033623;28;19928;-71
2022/06/27 08:16:39;;;;;;;;;;;24.60;94.90;;;;;;5033324;28;19959;-70
2022/06/27 08:19:06;;;;;;;;;;;24.50;94.90;;;;;;5032237;28;19959;-71
2022/06/27 08:21:31;;;;;;;;;;;24.50;95.10;;;;;;5034071;28;20067;-69
2022/06/27 08:23:58;;;;;;;;;;;24.50;95.10;;;;;;5033469;28;19919;-71
2022/06/27 08:26:24;;;;;;;;;;;25.10;95.10;;;;;;5032033;28;19975;-71
2022/06/27 08:28:52;;;;;;;;;;;25.60;94.50;;;;;;5033085;28;19909;-70
2022/06/27 08:31:17;;;;;;;;;;;25.80;93.90;;;;;;5032771;28;20335;-70
2022/06/27 08:33:44;;;;;;;;;;;25.90;93.50;;;;;;5033344;28;20023;-70
2022/06/27 08:36:10;;;;;;;;;;;25.80;93.60;;;;;;5032664;28;20357;-69
2022/06/27 08:38:50;;;;;;;;;;;25.70;93.50;;;;;;5031834;28;19909;-70
2022/06/27 08:41:17;;;;;;;;;;;26.20;93.50;;;;;;5032611;28;19948;-70
2022/06/27 08:43:43;;;;;;;;;;;27.20;92.10;;;;;;5032694;28;19944;-71
2022/06/27 08:46:10;;;;;;;;;;;27.60;91.30;;;;;;5032848;28;20358;-71
2022/06/27 08:48:39;;;;;;;;;;;27.90;90.00;;;;;;5032821;28;19905;-71
2022/06/27 08:51:05;;;;;;;;;;;27.90;90.40;;;;;;5032696;28;19909;-71
2022/06/27 08:53:32;;;;;;;;;;;27.30;90.10;;;;;;5031375;28;20351;-71
2022/06/27 08:55:58;;;;;;;;;;;27.00;90.90;;;;;;5031542;28;20260;-71
2022/06/27 08:58:25;;;;;;;;;;;27.30;90.60;;;;;;5032586;28;19920;-70
2022/06/27 09:00:51;;;;;;;;;;;27.40;90.20;;;;;;5032824;28;19909;-70
2022/06/27 09:03:18;;;;;;;;;;;27.40;90.70;;;;;;5031666;28;20350;-71
2022/06/27 09:05:53;;;;;;;;;;;27.60;90.00;;;;;;5033058;28;19909;-71
2022/06/27 09:08:20;;;;;;;;;;;27.80;89.20;;;;;;5032823;28;19913;-72
2022/06/27 09:10:46;;;;;;;;;;;28.40;88.20;;;;;;5033190;28;20026;-70
2022/06/27 09:13:15;;;;;;;;;;;28.60;87.30;;;;;;5031134;28;19923;-71
2022/06/27 09:15:47;;;;;;;;;;;29.00;86.50;;;;;;5032512;28;19909;-73
2022/06/27 09:18:17;;;;;;;;;;;29.40;85.10;;;;;;5031131;28;19917;-72
2022/06/27 09:20:46;;;;;;;;;;;29.30;85.40;;;;;;5031031;28;20108;-71
2022/06/27 09:23:31;;;;;;;;;;;28.30;84.60;;;;;;5032132;28;20319;-71
2022/06/27 09:26:18;;;;;;;;;;;27.90;87.40;;;;;;5030844;28;19909;-72
2022/06/27 09:29:04;;;;;;;;;;;28.00;86.80;;;;;;5031851;28;19909;-71
2022/06/27 09:31:35;;;;;;;;;;;28.00;86.80;;;;;;5031828;28;19971;-72
2022/06/27 09:34:14;;;;;;;;;;;28.30;86.30;;;;;;5031842;28;19932;-67
2022/06/27 09:36:42;;;;;;;;;;;28.10;86.40;;;;;;5032263;28;19920;-70
2022/06/27 09:39:15;;;;;;;;;;;28.20;86.00;;;;;;5031721;28;19909;-71
2022/06/27 09:41:45;;;;;;;;;;;28.20;84.30;;;;;;5031799;28;19913;-71
2022/06/27 09:44:11;;;;;;;;;;;28.30;86.10;;;;;;5031743;28;19920;-71
2022/06/27 09:46:42;;;;;;;;;;;28.40;86.00;;;;;;5031910;28;20313;-72
2022/06/27 09:49:10;;;;;;;;;;;28.30;86.40;;;;;;5030562;28;19962;-70
2022/06/27 09:51:37;;;;;;;;;;;28.30;87.00;;;;;;5032013;28;20485;-71
2022/06/27 09:54:11;;;;;;;;;;;28.50;86.60;;;;;;5031416;28;20389;-70
2022/06/27 09:56:41;;;;;;;;;;;28.30;86.30;;;;;;5031559;28;19977;-72
2022/06/27 09:59:10;;;;;;;;;;;28.00;86.50;;;;;;5031300;28;19917;-70
2022/06/27 10:01:36;;;;;;;;;;;27.80;87.30;;;;;;5031252;28;19924;-71
2022/06/27 10:04:03;;;;;;;;;;;27.50;88.50;;;;;;5031653;28;20229;-71
2022/06/27 10:06:29;;;;;;;;;;;27.60;88.60;;;;;;5031712;28;19897;-71
2022/06/27 10:08:55;;;;;;;;;;;27.60;88.90;;;;;;5030260;28;20243;-70
2022/06/27 10:11:21;;;;;;;;;;;27.80;88.70;;;;;;5031319;28;19909;-72
2022/06/27 10:14:06;;;;;;;;;;;28.00;88.40;;;;;;5031252;28;19924;-70
2022/06/27 10:16:32;;;;;;;;;;;27.80;88.50;;;;;;5030987;28;19984;-70
2022/06/27 10:18:59;;;;;;;;;;;28.00;88.10;;;;;;5031479;28;19916;-71
2022/06/27 10:21:26;;;;;;;;;;;28.10;87.60;;;;;;5031423;28;19909;-71
2022/06/27 10:24:10;;;;;;;;;;;27.80;88.10;;;;;;5031500;28;20076;-70
2022/06/27 10:26:42;;;;;;;;;;;27.60;87.70;;;;;;5031162;28;19924;-69
2022/06/27 10:29:33;;;;;;;;;;;27.70;88.20;;;;;;5031048;28;20279;-70
2022/06/27 10:32:02;;;;;;;;;;;27.80;87.80;;;;;;5030648;28;19924;-70
2022/06/27 10:34:40;;;;;;;;;;;27.90;86.80;;;;;;5031022;28;20244;-69
2022/06/27 10:37:21;;;;;;;;;;;27.80;86.20;;;;;;5031088;28;20228;-71
2022/06/27 10:39:47;;;;;;;;;;;27.80;86.40;;;;;;5031322;28;19916;-70
2022/06/27 10:42:31;;;;;;;;;;;27.90;86.20;;;;;;5031019;28;19940;-69
2022/06/27 10:45:15;;;;;;;;;;;28.10;85.90;;;;;;5029924;28;19917;-71
2022/06/27 10:47:41;;;;;;;;;;;27.80;85.80;;;;;;5030890;28;19940;-70
2022/06/27 10:50:10;;;;;;;;;;;28.00;86.20;;;;;;5030944;28;20247;-69
2022/06/27 10:52:36;;;;;;;;;;;28.00;85.90;;;;;;5029873;28;19917;-69
2022/06/27 10:55:02;;;;;;;;;;;28.10;85.60;;;;;;5031366;28;19920;-70
2022/06/27 10:57:37;;;;;;;;;;;28.00;86.20;;;;;;5030773;28;19967;-68
2022/06/27 11:00:04;;;;;;;;;;;28.10;86.00;;;;;;5030841;28;19963;-68
2022/06/27 11:02:31;;;;;;;;;;;28.00;86.00;;;;;;5032014;28;19909;-69
2022/06/27 11:04:57;;;;;;;;;;;28.00;86.00;;;;;;5034678;28;20397;-69
2022/06/27 11:07:22;;;;;;;;;;;28.10;86.10;;;;;;5035196;28;19917;-69
2022/06/27 11:09:48;;;;;;;;;;;28.10;85.90;;;;;;5034395;28;19905;-67
2022/06/27 11:12:15;;;;;;;;;;;28.30;86.20;;;;;;5034543;28;19924;-67
2022/06/27 11:14:48;;;;;;;;;;;28.20;86.00;;;;;;5034574;28;19913;-68
2022/06/27 11:17:34;;;;;;;;;;;28.10;86.40;;;;;;5033285;28;20103;-66
2022/06/27 11:20:13;;;;;;;;;;;28.30;86.20;;;;;;5034219;28;19932;-68
2022/06/27 11:22:39;;;;;;;;;;;28.30;86.00;;;;;;5034687;28;19996;-68
2022/06/27 11:25:05;;;;;;;;;;;28.40;85.90;;;;;;5034220;28;19905;-67
2022/06/27 11:27:44;;;;;;;;;;;28.10;87.00;;;;;;5033646;28;19955;-67
2022/06/27 11:32:54;;;;;;;;;;;28.10;87.30;;;;;;5034049;28;20242;-67
2022/06/27 11:35:20;;;;;;;;;;;28.30;87.10;;;;;;5034030;28;20007;-68
2022/06/27 11:37:45;;;;;;;;;;;28.20;87.50;;;;;;5034326;28;19913;-68
2022/06/27 11:40:11;;;;;;;;;;;28.30;87.00;;;;;;5033931;28;20349;-68
2022/06/27 11:42:40;;;;;;;;;;;28.40;86.90;;;;;;5034730;28;19911;-68
2022/06/27 11:45:06;;;;;;;;;;;28.60;86.30;;;;;;5033937;28;19924;-68
2022/06/27 11:47:35;;;;;;;;;;;28.50;86.40;;;;;;5033872;28;20232;-71
2022/06/27 11:50:03;;;;;;;;;;;28.50;86.40;;;;;;5033999;28;19919;-68
2022/06/27 11:52:38;;;;;;;;;;;28.40;86.70;;;;;;5033834;28;19920;-68
2022/06/27 11:55:05;;;;;;;;;;;28.50;86.70;;;;;;5033642;28;19905;-68
2022/06/27 11:57:32;;;;;;;;;;;28.30;86.60;;;;;;5034155;28;19992;-69
2022/06/27 11:59:58;;;;;;;;;;;28.30;87.10;;;;;;5032707;28;19936;-68
2022/06/27 12:02:31;;;;;;;;;;;27.90;87.80;;;;;;5033764;28;19916;-69
2022/06/27 12:05:17;;;;;;;;;;;27.70;88.20;;;;;;5034083;28;19913;-68
2022/06/27 12:08:06;;;;;;;;;;;27.90;88.20;;;;;;5032571;28;19909;-69
2022/06/27 12:10:36;;;;;;;;;;;27.50;88.60;;;;;;5034160;28;20358;-68
2022/06/27 12:13:05;;;;;;;;;;;27.30;89.60;;;;;;5033743;28;20250;-68
2022/06/27 12:15:32;;;;;;;;;;;27.30;89.40;;;;;;5034525;28;19913;-67
2022/06/27 12:17:59;;;;;;;;;;;27.10;90.00;;;;;;5033421;28;19939;-68
2022/06/27 12:20:25;;;;;;;;;;;27.30;90.20;;;;;;5033536;28;19957;-68
2022/06/27 12:22:51;;;;;;;;;;;27.40;90.10;;;;;;5032231;28;19924;-69
2022/06/27 12:25:17;;;;;;;;;;;27.30;90.20;;;;;;5033428;28;19905;-68
2022/06/27 12:27:43;;;;;;;;;;;27.40;90.20;;;;;;5033665;28;19905;-69
2022/06/27 12:30:09;;;;;;;;;;;27.60;90.10;;;;;;5033154;28;19948;-69
2022/06/27 12:32:35;;;;;;;;;;;27.70;89.90;;;;;;5033037;28;20003;-68
2022/06/27 12:35:01;;;;;;;;;;;27.80;89.40;;;;;;5033120;28;20027;-68
2022/06/27 12:37:27;;;;;;;;;;;27.70;89.40;;;;;;5033080;28;19967;-67
2022/06/27 12:39:52;;;;;;;;;;;27.80;89.40;;;;;;5033265;28;19909;-67
2022/06/27 12:42:18;;;;;;;;;;;27.90;88.90;;;;;;5032737;28;19909;-68
2022/06/27 12:44:44;;;;;;;;;;;27.80;88.80;;;;;;5031953;28;20041;-67
2022/06/27 12:47:09;;;;;;;;;;;27.80;88.80;;;;;;5033432;28;19909;-67
2022/06/27 12:49:35;;;;;;;;;;;27.80;89.60;;;;;;5032680;28;19909;-67
2022/06/27 12:52:00;;;;;;;;;;;27.90;89.10;;;;;;5031948;28;20385;-69
2022/06/27 12:54:26;;;;;;;;;;;28.10;88.50;;;;;;5031377;28;20298;-71
2022/06/27 12:56:52;;;;;;;;;;;27.90;88.60;;;;;;5031315;28;19912;-68
2022/06/27 12:59:17;;;;;;;;;;;27.80;89.20;;;;;;5032764;28;19936;-69
2022/06/27 13:01:43;;;;;;;;;;;27.90;89.10;;;;;;5032487;28;19992;-68
2022/06/27 13:04:08;;;;;;;;;;;27.90;88.90;;;;;;5032377;28;19916;-68
2022/06/27 13:06:34;;;;;;;;;;;27.80;88.90;;;;;;5033051;28;19904;-68
2022/06/27 13:09:00;;;;;;;;;;;28.00;88.90;;;;;;5032375;28;20373;-69
2022/06/27 13:11:25;;;;;;;;;;;27.90;88.90;;;;;;5031200;28;20232;-69
2022/06/27 13:13:51;;;;;;;;;;;27.40;89.50;;;;;;5032263;28;19913;-69
2022/06/27 13:16:17;;;;;;;;;;;27.40;89.60;;;;;;5032058;28;19936;-70
2022/06/27 13:18:42;;;;;;;;;;;27.20;89.70;;;;;;5031569;28;20011;-73
2022/06/27 13:21:07;;;;;;;;;;;27.20;90.20;;;;;;5032179;28;20015;-73
2022/06/27 13:23:33;;;;;;;;;;;27.20;90.20;;;;;;5032184;28;20309;-74
2022/06/27 13:25:59;;;;;;;;;;;27.40;90.00;;;;;;5031703;28;20159;-70
2022/06/27 13:28:24;;;;;;;;;;;27.60;89.60;;;;;;5031844;28;19913;-69
2022/06/27 13:30:50;;;;;;;;;;;27.20;90.00;;;;;;5031208;28;20012;-68
2022/06/27 13:33:15;;;;;;;;;;;27.20;90.00;;;;;;5031830;28;20266;-69
2022/06/27 13:35:41;;;;;;;;;;;26.70;90.50;;;;;;5031652;28;19925;-68
2022/06/27 13:38:07;;;;;;;;;;;26.70;90.60;;;;;;5031890;28;20250;-71
2022/06/27 13:40:32;;;;;;;;;;;26.50;90.80;;;;;;5031684;28;19924;-71
2022/06/27 13:42:58;;;;;;;;;;;26.20;91.20;;;;;;5032088;28;20250;-73
2022/06/27 13:45:25;;;;;;;;;;;26.40;91.10;;;;;;5031649;28;19916;-71
2022/06/27 13:47:51;;;;;;;;;;;26.30;91.10;;;;;;5031567;28;19931;-72
2022/06/27 13:50:17;;;;;;;;;;;26.00;91.50;;;;;;5030409;28;20302;-71
2022/06/27 13:52:42;;;;;;;;;;;26.10;91.50;;;;;;5031332;28;19925;-71
2022/06/27 13:55:08;;;;;;;;;;;26.30;91.10;;;;;;5031237;28;19905;-72
2022/06/27 13:57:34;;;;;;;;;;;26.50;91.40;;;;;;5031698;28;19909;-71
2022/06/27 13:59:59;;;;;;;;;;;26.50;90.80;;;;;;5031373;28;19909;-70
2022/06/27 14:02:25;;;;;;;;;;;26.20;91.00;;;;;;5031190;28;19913;-71
2022/06/27 14:04:51;;;;;;;;;;;26.10;91.00;;;;;;5030256;28;19942;-71
2022/06/27 14:10:00;;;;;;;;;;;25.80;91.60;;;;;;5031880;28;19963;-73
2022/06/27 14:12:26;;;;;;;;;;;25.80;91.80;;;;;;5030025;28;19917;-72
2022/06/27 14:14:51;;;;;;;;;;;26.00;91.50;;;;;;5031299;28;20008;-71
2022/06/27 14:17:17;;;;;;;;;;;25.80;91.50;;;;;;5029995;28;20062;-71
2022/06/27 14:19:42;;;;;;;;;;;25.60;91.80;;;;;;5031165;28;19909;-71
2022/06/27 14:22:08;;;;;;;;;;;25.70;91.90;;;;;;5031380;28;19905;-72